TimeCST,TemperatureF,Dew PointF,Humidity,Sea Level PressureIn,VisibilityMPH,Wind Direction,Wind SpeedMPH,Gust SpeedMPH,PrecipitationIn,Events,Conditions,WindDirDegrees,DateUTC
12:53 AM,36.0,25.0,64,29.96,10.0,South,9.2,-,N/A,,Partly Cloudy,170,2013-01-08 06:53:00
1:53 AM,35.1,26.1,70,29.94,10.0,South,9.2,-,N/A,,Partly Cloudy,170,2013-01-08 07:53:00
2:53 AM,34.0,25.0,70,29.94,10.0,South,9.2,-,N/A,,Partly Cloudy,170,2013-01-08 08:53:00
3:53 AM,30.9,25.0,79,29.96,10.0,South,9.2,-,N/A,,Partly Cloudy,180,2013-01-08 09:53:00
4:53 AM,30.0,25.0,82,29.95,10.0,South,6.9,-,N/A,,Partly Cloudy,190,2013-01-08 10:53:00
5:53 AM,32.0,25.0,75,29.95,10.0,SW,3.5,-,N/A,,Partly Cloudy,220,2013-01-08 11:53:00
6:53 AM,28.9,24.1,82,29.97,10.0,NW,3.5,-,N/A,,Scattered Clouds,320,2013-01-08 12:53:00
7:53 AM,28.0,25.0,88,29.99,10.0,Calm,Calm,-,N/A,,Partly Cloudy,0,2013-01-08 13:53:00
8:39 AM,28.4,26.6,93,30.01,10.0,SE,3.5,-,N/A,,Mostly Cloudy,140,2013-01-08 14:39:00
8:53 AM,32.0,27.0,82,30.03,10.0,Calm,Calm,-,N/A,,Mostly Cloudy,0,2013-01-08 14:53:00
9:53 AM,37.9,30.0,73,30.01,10.0,WNW,5.8,-,N/A,,Mostly Cloudy,290,2013-01-08 15:53:00
10:07 AM,37.4,30.2,75,30.01,7.0,WNW,5.8,-,N/A,,Overcast,300,2013-01-08 16:07:00
10:53 AM,41.0,32.0,70,30.00,7.0,West,6.9,-,N/A,,Overcast,270,2013-01-08 16:53:00
11:49 AM,42.8,33.8,70,29.99,7.0,WSW,8.1,-,N/A,,Overcast,250,2013-01-08 17:49:00
11:53 AM,44.1,34.0,68,29.98,7.0,West,8.1,-,N/A,,Overcast,260,2013-01-08 17:53:00
12:53 PM,46.0,35.1,66,29.95,7.0,WSW,8.1,-,N/A,,Overcast,240,2013-01-08 18:53:00
1:53 PM,46.9,36.0,66,29.94,7.0,SW,8.1,-,N/A,,Overcast,220,2013-01-08 19:53:00
2:53 PM,48.0,37.0,66,29.92,7.0,SSW,8.1,-,N/A,,Overcast,200,2013-01-08 20:53:00
3:36 PM,50.0,37.4,62,29.93,7.0,Variable,3.5,-,N/A,,Mostly Cloudy,0,2013-01-08 21:36:00
3:53 PM,50.0,37.9,63,29.93,8.0,South,5.8,-,N/A,,Mostly Cloudy,190,2013-01-08 21:53:00
4:27 PM,50.0,39.2,66,29.94,8.0,Calm,Calm,-,N/A,,Scattered Clouds,0,2013-01-08 22:27:00
4:53 PM,48.9,37.9,66,29.94,8.0,South,8.1,-,N/A,,Scattered Clouds,180,2013-01-08 22:53:00
5:53 PM,45.0,37.9,76,29.98,9.0,SE,5.8,-,N/A,,Mostly Cloudy,140,2013-01-08 23:53:00
6:50 PM,44.6,39.2,81,30.00,10.0,Calm,Calm,-,N/A,,Mostly Cloudy,0,2013-01-09 00:50:00
6:53 PM,42.1,37.9,85,30.01,10.0,Calm,Calm,-,N/A,,Mostly Cloudy,0,2013-01-09 00:53:00
7:53 PM,44.1,37.9,79,30.04,10.0,NE,4.6,-,N/A,,Mostly Cloudy,40,2013-01-09 01:53:00
8:49 PM,44.6,37.4,76,30.06,9.0,East,3.5,-,N/A,,Overcast,90,2013-01-09 02:49:00
8:53 PM,44.1,37.9,79,30.06,9.0,East,3.5,-,N/A,,Overcast,100,2013-01-09 02:53:00
9:53 PM,39.0,36.0,89,30.04,8.0,NNE,6.9,-,N/A,,Mostly Cloudy,30,2013-01-09 03:53:00
10:53 PM,37.4,33.8,87,30.09,7.0,ENE,6.9,-,N/A,,Scattered Clouds,60,2013-01-09 04:53:00
11:53 PM,36.0,34.0,93,30.11,6.0,NNE,8.1,-,N/A,,Scattered Clouds,20,2013-01-09 05:53:00